gordon.dewis.ca - Random musings from Gordon

Subscribe

What did we do to deserve this?

February 19, 2016 @ 22:06 By: gordon Category: Weather

So, a quick recap of this week:

  • Bloody freezing cold
  • Ludicrous amounts of snow
  • A bit more snow
  • Cold

And now this:

TAF AMD CYOW 200030Z 2000/2024 09015KT 3/4SM -TSSN OVC015
TEMPO 2000/2001 2SM -SN OVC020
FM200100 09014KT 2SM -SN OVC015
TEMPO 2001/2003 6SM -SN
FM200300 11015KT 11/2SM -SN VV012
TEMPO 2003/2011 1/2SM SN VV005 PROB30 2003/2007 3/8SM SHSN
FM201100 19015G25KT 2SM -RA BR SCT008 OVC015
FM201500 24020G30KT P6SM -SHRA OVC020
FM201900 24015G25KT P6SM -SHRA OVC030
RMK NXT FCST BY 200300Z

Essentially, light thundersnow (!) with periods of light snow followed by light snow with periods of moderate snow and possible snow showers. Then light rain and mist, silly amounts of wind with light rain showers. All between 7pm this evening and 2pm Saturday.

Leave a Reply

CAPTCHA
*